Time;durP1;ratioP1;P1;durP2;ratioP2;P2;SDS_P1;SDS_P2;PMS_P1;PMS_P2;Temp;Humidity;BMP_temperature;BMP_pressure;BME280_temperature;BME280_humidity;BME280_pressure;Samples;Min_cycle;Max_cycle;Signal;HPM_P1;HPM_P2
2023/04/03 00:09:16;;;;;;;4.80;2.10;;;;;;;4.31;63.48;101309.30;669552;1273;138625;-83
2023/04/03 00:24:19;;;;;;;6.90;2.60;;;;;;;4.19;63.21;101315.20;666032;1272;138539;-83
2023/04/03 00:39:22;;;;;;;17.90;6.20;;;;;;;4.11;63.32;101321.23;670604;1265;138567;-83
2023/04/03 00:54:26;;;;;;;6.20;2.60;;;;;;;4.04;63.30;101328.88;668019;1263;138818;-83
2023/04/03 01:09:30;;;;;;;8.30;3.80;;;;;;;3.84;63.18;101330.40;669024;1281;139303;-83
2023/04/03 01:24:38;;;;;;;5.40;2.40;;;;;;;3.77;63.53;101338.49;670905;1281;138360;-84
2023/04/03 01:39:44;;;;;;;7.00;2.70;;;;;;;3.71;63.39;101347.05;667009;1265;138535;-83
2023/04/03 01:54:47;;;;;;;5.00;2.50;;;;;;;3.60;63.67;101359.27;668856;1266;138551;-85
2023/04/03 02:09:50;;;;;;;12.50;5.30;;;;;;;3.61;63.65;101366.49;674944;1278;139366;-84
2023/04/03 02:24:54;;;;;;;8.20;3.00;;;;;;;3.49;63.78;101373.88;671430;1265;139465;-85
2023/04/03 02:39:57;;;;;;;5.80;3.40;;;;;;;3.49;63.90;101382.74;669832;1266;139310;-85
2023/04/03 02:55:03;;;;;;;6.60;2.00;;;;;;;3.36;64.03;101393.27;668423;1269;138829;-82
2023/04/03 03:10:07;;;;;;;5.90;3.40;;;;;;;3.27;64.15;101400.37;674049;1266;139155;-86
2023/04/03 03:25:10;;;;;;;4.80;2.20;;;;;;;3.15;64.23;101401.36;667046;1271;140114;-82
2023/04/03 03:40:13;;;;;;;6.60;3.30;;;;;;;3.10;64.32;101409.84;668032;1276;139225;-84
2023/04/03 03:55:17;;;;;;;6.10;2.80;;;;;;;3.05;64.10;101419.38;673204;1276;140007;-83
2023/04/03 04:10:23;;;;;;;10.00;4.30;;;;;;;2.96;63.95;101433.73;670663;1268;139525;-83
2023/04/03 04:25:26;;;;;;;7.90;4.00;;;;;;;2.93;63.75;101438.50;671281;1269;139075;-83
2023/04/03 04:40:30;;;;;;;17.40;7.20;;;;;;;2.93;63.72;101446.45;670419;1266;139027;-82
2023/04/03 04:55:34;;;;;;;12.90;5.70;;;;;;;2.95;63.66;101456.41;669355;1274;139147;-82
2023/04/03 05:10:38;;;;;;;14.90;5.70;;;;;;;3.03;63.37;101470.26;669725;1266;139003;-82
2023/04/03 05:25:43;;;;;;;23.00;11.10;;;;;;;3.20;63.15;101482.64;668971;1267;138591;-82
2023/04/03 05:40:47;;;;;;;13.70;5.30;;;;;;;3.39;62.38;101487.75;669198;1269;139983;-80
2023/04/03 05:55:51;;;;;;;11.40;5.60;;;;;;;3.66;61.58;101492.08;668422;1276;138200;-82
2023/04/03 06:10:56;;;;;;;11.30;4.10;;;;;;;4.01;60.53;101496.21;669364;1264;138917;-83
2023/04/03 06:26:00;;;;;;;11.10;4.10;;;;;;;4.48;59.14;101506.19;670575;1277;139532;-81
2023/04/03 06:41:04;;;;;;;10.70;3.20;;;;;;;4.84;56.93;101513.32;668944;1261;138225;-85
2023/04/03 06:56:07;;;;;;;7.00;3.20;;;;;;;5.60;56.80;101522.13;667459;1267;138259;-84
2023/04/03 07:11:12;;;;;;;6.70;3.50;;;;;;;6.56;55.59;101538.52;669412;1267;138631;-84
2023/04/03 07:26:15;;;;;;;15.00;6.60;;;;;;;7.68;55.89;101552.20;671198;1263;138015;-84
2023/04/03 07:41:21;;;;;;;8.70;3.60;;;;;;;8.55;55.04;101561.42;669711;1277;138906;-83
2023/04/03 07:56:25;;;;;;;8.60;3.90;;;;;;;9.15;53.98;101571.30;669970;1269;137754;-83
2023/04/03 08:11:28;;;;;;;9.00;3.90;;;;;;;9.43;51.97;101579.32;671767;1265;138624;-84
2023/04/03 08:26:31;;;;;;;91.10;46.50;;;;;;;10.23;52.07;101575.61;672157;1261;137247;-84
2023/04/03 08:41:43;;;;;;;6.70;3.80;;;;;;;11.47;51.65;101579.56;671653;1276;138271;-86
2023/04/03 08:56:46;;;;;;;8.90;4.90;;;;;;;12.02;49.28;101590.23;668023;1261;138172;-83
2023/04/03 09:12:14;;;;;;;7.20;2.40;;;;;;;11.68;46.90;101587.06;669451;1263;137508;-83
2023/04/03 09:27:17;;;;;;;23.80;11.50;;;;;;;10.89;47.25;101579.42;670971;1260;319989;-83
2023/04/03 09:42:25;;;;;;;10.10;4.80;;;;;;;10.63;47.00;101580.63;671033;1266;138558;-82
2023/04/03 09:57:32;;;;;;;45.30;19.80;;;;;;;11.32;46.18;101578.55;668799;1265;138148;-83
2023/04/03 10:12:36;;;;;;;5.30;3.20;;;;;;;11.78;44.42;101568.83;670707;1264;137514;-84
2023/04/03 10:28:01;;;;;;;16.30;6.90;;;;;;;13.26;44.02;101561.33;671015;1265;139292;-84
2023/04/03 10:43:35;;;;;;;7.70;3.10;;;;;;;14.13;43.98;101547.88;671520;1264;139253;-84
2023/04/03 10:58:43;;;;;;;10.00;2.60;;;;;;;14.38;43.15;101543.04;673773;1263;138354;-85
2023/04/03 11:14:04;;;;;;;59.80;28.50;;;;;;;14.85;42.86;101535.52;671067;1265;138173;-84
2023/04/03 11:29:14;;;;;;;18.10;12.50;;;;;;;14.93;41.00;101520.56;670179;1266;138612;-83
2023/04/03 11:44:38;;;;;;;5.00;3.00;;;;;;;15.33;40.10;101507.50;670026;1283;139089;-84
2023/04/03 11:59:42;;;;;;;3.80;2.10;;;;;;;15.15;41.23;101502.28;670738;1262;138364;-85
2023/04/03 12:14:45;;;;;;;5.60;2.90;;;;;;;15.27;41.00;101490.41;670606;1262;138511;-84
2023/04/03 12:29:57;;;;;;;8.20;3.20;;;;;;;14.87;40.55;101486.02;671089;1260;138425;-79
2023/04/03 12:45:16;;;;;;;3.80;2.30;;;;;;;14.12;41.02;101485.36;671845;1263;139036;-84
2023/04/03 13:00:29;;;;;;;4.60;2.50;;;;;;;13.86;40.55;101480.04;669812;1264;137780;-83
2023/04/03 13:15:45;;;;;;;10.20;4.20;;;;;;;13.64;41.07;101478.54;670093;1265;137972;-83
2023/04/03 13:30:56;;;;;;;10.70;3.50;;;;;;;13.51;41.36;101480.49;671811;1266;138521;-84
2023/04/03 13:46:22;;;;;;;10.90;6.80;;;;;;;13.75;41.32;101477.29;672148;1278;138199;-83
2023/04/03 14:01:44;;;;;;;8.00;3.30;;;;;;;14.13;40.73;101482.02;674996;1264;138077;-83
2023/04/03 14:16:52;;;;;;;7.40;4.70;;;;;;;20.04;37.86;101471.05;670067;1264;137983;-83
2023/04/03 14:31:55;;;;;;;34.80;13.30;;;;;;;17.04;38.23;101472.17;670650;1263;138704;-83
2023/04/03 14:47:21;;;;;;;28.70;11.60;;;;;;;15.68;39.26;101465.27;672816;1265;138557;-82
2023/04/03 15:02:38;;;;;;;22.10;8.70;;;;;;;14.17;38.94;101468.96;670391;1264;138404;-84
2023/04/03 15:17:44;;;;;;;16.60;7.40;;;;;;;12.36;40.77;101466.35;669554;1266;139244;-83
2023/04/03 15:32:49;;;;;;;14.00;5.70;;;;;;;11.17;42.14;101465.43;671065;1262;138811;-84
2023/04/03 15:47:52;;;;;;;5.00;2.60;;;;;;;13.68;41.08;101472.10;669871;1263;138031;-85
2023/04/03 16:03:01;;;;;;;10.50;3.80;;;;;;;11.80;41.78;101470.20;671954;1263;138207;-85
2023/04/03 16:18:05;;;;;;;5.90;2.70;;;;;;;14.65;40.93;101473.54;672615;1274;138672;-86
2023/04/03 16:33:11;;;;;;;20.50;9.60;;;;;;;14.51;38.54;101475.86;673122;1263;139345;-86
2023/04/03 16:48:15;;;;;;;68.90;24.80;;;;;;;10.95;40.74;101480.58;673973;1265;138077;-83
2023/04/03 17:03:18;;;;;;;39.20;15.80;;;;;;;9.14;42.62;101497.47;671496;1262;138328;-82
2023/04/03 17:18:22;;;;;;;51.00;22.00;;;;;;;8.18;44.35;101504.09;674162;1262;140186;-84
2023/04/03 17:33:30;;;;;;;28.50;13.30;;;;;;;7.65;45.83;101513.24;673627;1263;138539;-82
2023/04/03 17:48:36;;;;;;;12.90;7.00;;;;;;;7.44;47.16;101511.91;670837;1262;139730;-82
2023/04/03 18:03:40;;;;;;;21.20;8.60;;;;;;;7.12;47.69;101521.69;671635;1265;138917;-81
2023/04/03 18:18:44;;;;;;;42.80;16.80;;;;;;;6.80;48.02;101521.97;670112;1262;137317;-82
2023/04/03 18:33:53;;;;;;;38.80;14.10;;;;;;;6.44;48.07;101513.91;675508;1265;139133;-82
2023/04/03 18:48:58;;;;;;;21.00;10.70;;;;;;;6.25;47.61;101517.48;673737;1263;137397;-82
2023/04/03 19:04:03;;;;;;;27.30;11.10;;;;;;;6.07;47.97;101511.22;672326;1263;138068;-82
2023/04/03 19:19:06;;;;;;;14.10;6.30;;;;;;;6.13;47.90;101506.80;671776;1262;138189;-82
2023/04/03 19:34:16;;;;;;;14.30;6.10;;;;;;;6.07;48.04;101507.92;672300;1268;138115;-82
2023/04/03 19:49:20;;;;;;;;;;;;;;;6.03;48.77;101511.77;670783;1267;137825;-82
2023/04/03 20:04:25;;;;;;;31.90;11.20;;;;;;;5.90;49.39;101508.77;670320;1273;124560;-81
2023/04/03 20:19:30;;;;;;;20.30;5.10;;;;;;;5.61;49.45;101502.14;674181;1263;137112;-82
2023/04/03 20:34:37;;;;;;;25.30;10.00;;;;;;;5.37;49.37;101489.42;671100;1268;138935;-82
2023/04/03 20:49:42;;;;;;;27.10;7.50;;;;;;;5.24;49.79;101492.24;671521;1262;139433;-83
2023/04/03 21:13:03;;;;;;;81.30;25.30;;;;;;;4.89;50.77;101494.19;649465;1298;544930;-83
2023/04/03 21:28:07;;;;;;;53.70;17.20;;;;;;;4.72;51.13;101494.75;665134;1273;138200;-81
2023/04/03 21:43:11;;;;;;;54.70;21.20;;;;;;;4.53;51.50;101495.44;667234;1272;138132;-81
2023/04/03 21:58:14;;;;;;;149.40;45.90;;;;;;;4.33;51.91;101492.30;668460;1272;137781;-81
2023/04/03 22:13:17;;;;;;;118.40;35.70;;;;;;;4.13;52.50;101480.48;667431;1272;137899;-82
2023/04/03 22:28:20;;;;;;;183.00;51.80;;;;;;;3.96;52.69;101474.09;667017;1280;138163;-83
2023/04/03 22:43:26;;;;;;;148.70;49.30;;;;;;;3.83;53.38;101475.14;666353;1275;138760;-82
2023/04/03 22:58:29;;;;;;;63.20;22.90;;;;;;;3.68;53.71;101466.73;668811;1278;138620;-83
2023/04/03 23:13:33;;;;;;;129.20;35.30;;;;;;;3.43;53.97;101464.08;666807;1274;138039;-82
2023/04/03 23:28:36;;;;;;;118.10;32.60;;;;;;;3.39;54.36;101451.44;665041;1275;138496;-82
2023/04/03 23:43:41;;;;;;;88.00;23.40;;;;;;;3.22;54.94;101442.77;668502;1269;138570;-83
2023/04/03 23:58:44;;;;;;;79.20;23.10;;;;;;;2.89;55.12;101434.14;670958;1265;139114;-83
